ENFL/FRO METAR and TAF weather

Enter ICAO airport designator
Station Type Date Time Source
ENFL METAR 2019/10/20 19:50 UTC NOAA

ENFL 201950Z 36007KT CAVOK 08/03 Q1015


Station Type Date Time Source
ENFL Decoded METAR 2019/10/20 19:50 UTC NOAA

Floro, Norway (ENFL) 61-35N 005-02E 9M
Oct 20, 2019 - 03:50 PM EDT / 2019.10.20 1950 UTC
Wind: from the N (360 degrees) at 8 MPH (7 KT):0
Visibility: greater than 7 mile(s):0
Temperature: 46 F (8 C)
Dew Point: 37 F (3 C)
Relative Humidity: 70%
Pressure (altimeter): 29.97 in. Hg (1015 hPa)
ob: ENFL 201950Z 36007KT CAVOK 08/03 Q1015
cycle: 20

Station Type Date Time Source
ENFL TAF 2010/02/05 07:50 UTC NOAA

METAR ENFL 050750Z 16019KT 140V200 9999 FEW015 SCT030 BKN055 03/M03 Q1011

Example: see airport list